Time;durP1;ratioP1;P1;durP2;ratioP2;P2;SDS_P1;SDS_P2;PMS_P1;PMS_P2;Temp;Humidity;BMP_temperature;BMP_pressure;BME280_temperature;BME280_humidity;BME280_pressure;Samples;Min_cycle;Max_cycle;Signal;HPM_P1;HPM_P2
2022/01/12 00:00:40;;;;;;;89.07;38.30;;;3.70;99.90;;;;;;5002082;28;20450;-41
2022/01/12 00:03:10;;;;;;;84.57;36.90;;;3.70;99.90;;;;;;5003279;28;20138;-42
2022/01/12 00:05:37;;;;;;;89.13;37.67;;;3.70;99.90;;;;;;4995013;28;20094;-43
2022/01/12 00:08:05;;;;;;;99.18;40.03;;;3.70;99.90;;;;;;5022032;28;20058;-43
2022/01/12 00:10:32;;;;;;;103.32;40.58;;;3.70;99.90;;;;;;4998467;28;20094;-42
2022/01/12 00:12:59;;;;;;;101.90;40.65;;;3.70;99.90;;;;;;4994156;28;20089;-41
2022/01/12 00:15:26;;;;;;;90.50;37.53;;;3.70;99.90;;;;;;4992645;28;20089;-44
2022/01/12 00:17:54;;;;;;;112.43;41.42;;;3.70;99.90;;;;;;4997165;28;20046;-43
2022/01/12 00:20:21;;;;;;;109.47;40.00;;;3.80;99.90;;;;;;4996062;28;20050;-43
2022/01/12 00:22:48;;;;;;;111.18;40.70;;;3.80;99.90;;;;;;4995102;28;20105;-42
2022/01/12 00:25:31;;;;;;;122.65;42.10;;;3.70;99.90;;;;;;5020765;28;20046;-44
2022/01/12 00:33:27;;;;;;;90.93;36.47;;;3.80;99.90;;;;;;4995062;28;20121;-43
2022/01/12 00:35:56;;;;;;;110.40;41.67;;;3.80;99.90;;;;;;5010245;28;20081;-44
2022/01/12 00:38:25;;;;;;;114.82;42.20;;;3.80;99.90;;;;;;4994014;28;20057;-43
2022/01/12 00:40:53;;;;;;;130.85;43.28;;;3.80;99.90;;;;;;4994472;28;20050;-43
2022/01/12 00:43:21;;;;;;;112.22;39.80;;;3.80;99.90;;;;;;5005764;28;20057;-45
2022/01/12 00:45:48;;;;;;;108.40;41.42;;;3.80;99.90;;;;;;5013295;28;20192;-43
2022/01/12 00:48:15;;;;;;;99.97;39.78;;;3.80;99.90;;;;;;5013105;28;20062;-43
2022/01/12 00:50:43;;;;;;;129.85;41.67;;;3.80;99.90;;;;;;5014172;28;20101;-44
2022/01/12 00:53:10;;;;;;;106.45;39.55;;;3.80;99.90;;;;;;4998091;28;20112;-43
2022/01/12 00:55:38;;;;;;;117.03;41.97;;;3.80;99.90;;;;;;4992805;28;20050;-43
2022/01/12 00:58:05;;;;;;;109.88;39.10;;;3.80;99.90;;;;;;4994091;28;20104;-44
2022/01/12 01:00:32;;;;;;;101.57;38.85;;;3.80;99.90;;;;;;4994501;28;20043;-45
2022/01/12 01:02:59;;;;;;;101.70;38.90;;;3.80;99.90;;;;;;5008687;28;20046;-45
2022/01/12 01:05:28;;;;;;;95.28;38.13;;;3.90;99.90;;;;;;4994310;28;20433;-44
2022/01/12 01:07:56;;;;;;;91.85;36.78;;;3.90;99.90;;;;;;5008990;28;20057;-47
2022/01/12 01:10:31;;;;;;;112.82;39.60;;;3.80;99.90;;;;;;5000367;28;20145;-43
2022/01/12 01:12:58;;;;;;;84.30;35.80;;;3.90;99.90;;;;;;4993098;28;20061;-42
2022/01/12 01:15:41;;;;;;;90.88;36.15;;;3.90;99.90;;;;;;4994144;28;20065;-46
2022/01/12 01:26:25;;;;;;;139.38;43.30;;;3.90;99.90;;;;;;4993931;28;20061;-45
2022/01/12 01:28:52;;;;;;;119.25;42.25;;;3.90;99.90;;;;;;5009091;28;20056;-45
2022/01/12 01:31:20;;;;;;;119.93;41.10;;;3.90;99.90;;;;;;5007917;28;20054;-45
2022/01/12 01:33:47;;;;;;;126.30;40.97;;;3.90;99.90;;;;;;5005357;28;20064;-44
2022/01/12 01:36:15;;;;;;;139.20;43.75;;;3.90;99.90;;;;;;5013126;28;20506;-45
2022/01/12 01:38:47;;;;;;;151.63;43.08;;;3.90;99.90;;;;;;5011274;28;20494;-43
2022/01/12 01:41:14;;;;;;;138.93;42.50;;;3.90;99.90;;;;;;4994514;28;20056;-45
2022/01/12 01:44:04;;;;;;;115.28;40.10;;;3.90;99.90;;;;;;4997898;28;20108;-46
2022/01/12 01:54:43;;;;;;;169.98;45.28;;;3.90;99.90;;;;;;5000287;28;20042;-44
2022/01/12 01:57:10;;;;;;;154.70;44.63;;;3.90;99.90;;;;;;4993218;28;20081;-45
2022/01/12 01:59:37;;;;;;;133.63;43.60;;;4.00;99.90;;;;;;4993434;28;20050;-44
2022/01/12 02:02:04;;;;;;;171.40;43.53;;;4.00;99.90;;;;;;4993291;28;20057;-43
2022/01/12 02:04:31;;;;;;;181.25;45.55;;;4.00;99.90;;;;;;4992681;28;20473;-44
2022/01/12 02:06:59;;;;;;;103.85;37.85;;;4.00;99.90;;;;;;4993357;28;20142;-45
2022/01/12 02:09:26;;;;;;;134.70;42.47;;;4.00;99.90;;;;;;5007823;28;20056;-45
2022/01/12 02:11:55;;;;;;;146.80;45.40;;;4.00;99.90;;;;;;4993488;28;20054;-44
2022/01/12 02:14:22;;;;;;;131.95;44.17;;;4.00;99.90;;;;;;4992004;28;20085;-46
2022/01/12 02:16:55;;;;;;;169.45;44.88;;;4.00;99.90;;;;;;4996888;28;20065;-46
2022/01/12 02:19:48;;;;;;;135.07;44.45;;;4.00;99.90;;;;;;4997108;28;20137;-46
2022/01/12 02:36:08;;;;;;;162.38;46.28;;;4.00;99.90;;;;;;4996841;28;20054;-48
2022/01/12 02:41:20;;;;;;;169.57;45.55;;;4.00;99.90;;;;;;5010785;28;20145;-46
2022/01/12 02:54:45;;;;;;;152.82;44.05;;;4.10;99.90;;;;;;4977329;28;20059;-46
2022/01/12 02:57:15;;;;;;;162.80;45.15;;;4.10;99.90;;;;;;4992666;28;20401;-45
2022/01/12 03:00:00;;;;;;;134.07;40.47;;;4.10;99.90;;;;;;5014270;28;20372;-46
2022/01/12 03:02:31;;;;;;;154.13;43.33;;;4.10;99.90;;;;;;5002293;28;20054;-48
2022/01/12 03:05:15;;;;;;;142.23;44.85;;;4.10;99.90;;;;;;4996705;28;20137;-47
2022/01/12 03:07:42;;;;;;;172.07;45.50;;;4.10;99.90;;;;;;4995058;28;20121;-46
2022/01/12 03:10:12;;;;;;;233.85;49.95;;;4.10;99.90;;;;;;4994176;28;20058;-45
2022/01/12 03:12:39;;;;;;;163.18;45.70;;;4.10;99.90;;;;;;4996009;28;20057;-49
2022/01/12 03:15:07;;;;;;;156.75;45.50;;;4.10;99.90;;;;;;5000634;28;20056;-48
2022/01/12 03:17:34;;;;;;;216.32;48.25;;;4.10;99.90;;;;;;5015899;28;20054;-49
2022/01/12 03:20:01;;;;;;;233.48;49.13;;;4.10;99.90;;;;;;5005812;28;20052;-46
2022/01/12 03:22:28;;;;;;;105.53;36.97;;;4.10;99.90;;;;;;4996224;28;20391;-47
2022/01/12 03:24:55;;;;;;;160.90;44.95;;;4.20;99.90;;;;;;4995225;28;20132;-46
2022/01/12 03:27:25;;;;;;;119.38;39.42;;;4.10;99.90;;;;;;4996202;28;20051;-42
2022/01/12 03:29:55;;;;;;;127.07;37.83;;;4.20;99.90;;;;;;4994873;28;20055;-46
2022/01/12 03:32:30;;;;;;;107.97;37.42;;;4.20;99.90;;;;;;5000121;28;20072;-44
2022/01/12 03:35:35;;;;;;;128.63;41.80;;;4.20;99.90;;;;;;4995149;28;20165;-45
2022/01/12 03:40:43;;;;;;;148.38;43.65;;;4.20;99.90;;;;;;4995339;28;20178;-45
2022/01/12 03:43:11;;;;;;;138.27;42.95;;;4.20;99.90;;;;;;4995730;28;20065;-44
2022/01/12 03:45:38;;;;;;;150.30;43.28;;;4.20;99.90;;;;;;4995581;28;20055;-46
2022/01/12 03:48:05;;;;;;;125.35;41.15;;;4.20;99.90;;;;;;5011277;28;20416;-45
2022/01/12 03:50:32;;;;;;;172.35;44.95;;;4.20;99.90;;;;;;5000074;28;20494;-45
2022/01/12 03:52:59;;;;;;;139.48;44.95;;;4.20;99.90;;;;;;5010917;28;20059;-46
2022/01/12 03:55:27;;;;;;;150.82;44.60;;;4.30;99.90;;;;;;4992681;28;20124;-45
2022/01/12 03:57:54;;;;;;;142.88;43.22;;;4.20;99.90;;;;;;4995450;28;20074;-45
2022/01/12 04:00:22;;;;;;;152.65;46.22;;;4.20;99.90;;;;;;4995341;28;20042;-45
2022/01/12 04:02:49;;;;;;;150.88;45.30;;;4.20;99.90;;;;;;4994921;28;20414;-45
2022/01/12 04:05:28;;;;;;;128.40;43.50;;;4.20;99.90;;;;;;4995453;28;20056;-45
2022/01/12 04:10:40;;;;;;;121.40;38.70;;;4.30;99.90;;;;;;5011788;28;20089;-46
2022/01/12 04:13:07;;;;;;;104.90;35.72;;;4.30;99.90;;;;;;4994961;28;20050;-46
2022/01/12 04:15:35;;;;;;;103.10;37.10;;;4.30;99.90;;;;;;4995082;28;20089;-44
2022/01/12 04:18:02;;;;;;;114.90;40.20;;;4.30;99.90;;;;;;4994840;28;20054;-46
2022/01/12 04:20:29;;;;;;;116.57;39.88;;;4.30;99.90;;;;;;4994935;28;20406;-42
2022/01/12 04:25:40;;;;;;;116.80;39.72;;;4.30;99.90;;;;;;5005567;28;20133;-45
2022/01/12 04:28:07;;;;;;;130.85;40.67;;;4.30;99.90;;;;;;5010418;28;20054;-46
2022/01/12 04:30:36;;;;;;;86.32;33.40;;;4.20;99.90;;;;;;4998985;28;20135;-47
2022/01/12 04:33:06;;;;;;;111.65;40.33;;;4.20;99.90;;;;;;5014501;28;20046;-44
2022/01/12 04:35:39;;;;;;;134.07;42.10;;;4.20;99.90;;;;;;5010111;28;20054;-44
2022/01/12 04:38:06;;;;;;;125.68;39.95;;;4.30;99.90;;;;;;4988782;28;20499;-43
2022/01/12 04:40:34;;;;;;;98.72;37.22;;;4.20;99.90;;;;;;4998155;28;20141;-46
2022/01/12 04:43:01;;;;;;;86.00;33.05;;;4.20;99.90;;;;;;5010947;28;20414;-47
2022/01/12 04:45:39;;;;;;;78.50;31.55;;;4.20;99.90;;;;;;5013828;28;20046;-45
2022/01/12 04:48:33;;;;;;;101.10;37.83;;;4.20;99.90;;;;;;5000338;28;20137;-46
2022/01/12 04:51:00;;;;;;;74.82;29.67;;;4.10;99.90;;;;;;4998057;28;20069;-46
2022/01/12 04:53:27;;;;;;;104.28;36.03;;;4.10;99.90;;;;;;5009721;28;20133;-46
2022/01/12 04:55:54;;;;;;;66.43;27.85;;;4.00;99.90;;;;;;4993902;28;20048;-45
2022/01/12 04:58:21;;;;;;;73.00;30.92;;;4.00;99.90;;;;;;4993782;28;20064;-44
2022/01/12 05:00:48;;;;;;;63.35;27.15;;;4.00;99.90;;;;;;4993095;28;20054;-45
2022/01/12 05:06:40;;;;;;;58.38;26.33;;;3.90;99.90;;;;;;4993002;28;20058;-45
2022/01/12 05:09:16;;;;;;;70.35;28.73;;;3.80;99.90;;;;;;4996307;28;20576;-46
2022/01/12 05:14:36;;;;;;;55.35;24.70;;;3.70;99.90;;;;;;5001999;28;20052;-46
2022/01/12 05:17:03;;;;;;;45.65;22.70;;;3.60;99.90;;;;;;4994176;28;20046;-46
2022/01/12 05:19:31;;;;;;;72.65;29.17;;;3.50;99.90;;;;;;4997742;28;20054;-49
2022/01/12 05:21:58;;;;;;;68.10;27.52;;;3.50;99.90;;;;;;5004116;28;20042;-46
2022/01/12 05:24:25;;;;;;;66.45;27.05;;;3.50;99.90;;;;;;4992958;28;20061;-46
2022/01/12 05:26:52;;;;;;;77.80;29.13;;;3.40;99.90;;;;;;5001181;28;20054;-48
2022/01/12 05:29:19;;;;;;;69.43;29.75;;;3.40;99.90;;;;;;5012905;28;20109;-46
2022/01/12 05:31:46;;;;;;;74.32;29.13;;;3.30;99.90;;;;;;5011132;28;20060;-44
2022/01/12 05:34:13;;;;;;;69.47;27.92;;;3.20;99.90;;;;;;4993851;28;20082;-46
2022/01/12 05:36:42;;;;;;;55.17;23.02;;;3.20;99.90;;;;;;4989965;28;20092;-46
2022/01/12 05:39:09;;;;;;;71.63;29.20;;;3.20;99.90;;;;;;4992733;28;20050;-49
2022/01/12 05:41:36;;;;;;;64.20;28.38;;;3.10;99.90;;;;;;4993403;28;20603;-45
2022/01/12 05:44:07;;;;;;;62.10;26.08;;;3.10;99.90;;;;;;5006436;28;20049;-46
2022/01/12 05:46:36;;;;;;;;;;;3.10;99.90;;;;;;4997101;28;20129;-45
2022/01/12 05:51:51;;;;;;;75.30;28.50;;;2.90;99.90;;;;;;4991187;28;20483;-46
2022/01/12 05:54:18;;;;;;;44.10;20.90;;;2.90;99.90;;;;;;4992413;28;20062;-46
2022/01/12 05:56:45;;;;;;;63.83;27.48;;;2.90;99.90;;;;;;4991819;28;20129;-45
2022/01/12 05:59:12;;;;;;;64.65;26.30;;;2.90;99.90;;;;;;4991486;28;20055;-44
2022/01/12 06:01:39;;;;;;;68.35;27.15;;;2.80;99.90;;;;;;4992480;28;20509;-44
2022/01/12 06:04:06;;;;;;;74.43;29.38;;;2.80;99.90;;;;;;4991620;28;20054;-46
2022/01/12 06:06:38;;;;;;;83.25;30.05;;;2.80;99.90;;;;;;4996830;28;20410;-46
2022/01/12 06:09:06;;;;;;;88.82;30.35;;;2.80;99.90;;;;;;5007974;28;20470;-45
2022/01/12 06:11:33;;;;;;;94.40;30.20;;;2.80;99.90;;;;;;4991476;28;20065;-45
2022/01/12 06:14:00;;;;;;;69.13;26.00;;;2.80;99.90;;;;;;4990538;28;20479;-44
2022/01/12 06:16:29;;;;;;;62.70;24.92;;;2.70;99.90;;;;;;4992227;28;20052;-45
2022/01/12 06:18:56;;;;;;;79.30;28.52;;;2.70;99.90;;;;;;4986984;28;20065;-45
2022/01/12 06:21:24;;;;;;;176.85;29.85;;;2.70;99.90;;;;;;4984931;28;20503;-45
2022/01/12 06:23:51;;;;;;;53.15;21.35;;;2.60;99.90;;;;;;4991836;28;20101;-45
2022/01/12 06:26:23;;;;;;;79.95;29.58;;;2.60;99.90;;;;;;4992180;28;20369;-45
2022/01/12 06:29:14;;;;;;;64.40;26.35;;;2.50;99.90;;;;;;4990374;28;20086;-43
2022/01/12 06:31:42;;;;;;;63.05;27.23;;;2.50;99.90;;;;;;4991969;28;20054;-44
2022/01/12 06:34:09;;;;;;;83.70;29.70;;;2.50;99.90;;;;;;4991858;28;20113;-43
2022/01/12 06:36:36;;;;;;;58.00;27.20;;;2.40;99.90;;;;;;4991800;28;20050;-44
2022/01/12 06:39:03;;;;;;;45.38;20.08;;;2.40;99.90;;;;;;4992485;28;20100;-44
2022/01/12 06:41:31;;;;;;;95.18;27.45;;;2.40;99.90;;;;;;4992048;28;20046;-44
2022/01/12 06:43:58;;;;;;;61.70;28.95;;;2.40;99.90;;;;;;4989376;28;20050;-42
2022/01/12 06:46:29;;;;;;;43.67;22.00;;;2.30;99.90;;;;;;4992143;28;20078;-43
2022/01/12 06:48:56;;;;;;;48.95;24.83;;;2.30;99.90;;;;;;4992804;28;20314;-43
2022/01/12 06:51:23;;;;;;;43.08;20.80;;;2.20;99.90;;;;;;4991694;28;20034;-44
2022/01/12 06:53:52;;;;;;;46.80;21.55;;;2.20;99.90;;;;;;4990725;28;20053;-40
2022/01/12 06:56:19;;;;;;;46.05;20.42;;;2.20;99.90;;;;;;4975864;28;20066;-43
2022/01/12 06:58:48;;;;;;;49.88;22.00;;;2.20;99.90;;;;;;4961798;28;20886;-44
2022/01/12 07:01:15;;;;;;;49.90;21.40;;;2.20;99.90;;;;;;4988053;28;20137;-42
2022/01/12 07:03:42;;;;;;;64.03;22.15;;;2.20;99.90;;;;;;4995058;28;20050;-42
2022/01/12 07:06:09;;;;;;;50.88;20.52;;;2.20;99.90;;;;;;4995623;28;20140;-42
2022/01/12 07:08:36;;;;;;;40.60;18.08;;;2.20;99.90;;;;;;4995356;28;20056;-41
2022/01/12 07:11:04;;;;;;;39.75;18.60;;;2.10;99.90;;;;;;4994113;28;20240;-41
2022/01/12 07:13:31;;;;;;;28.88;16.15;;;2.10;99.90;;;;;;4995416;28;20058;-42
2022/01/12 07:15:59;;;;;;;104.40;23.63;;;2.00;99.90;;;;;;4995130;28;20054;-42
2022/01/12 07:18:28;;;;;;;40.97;18.27;;;2.10;99.90;;;;;;4995392;28;20056;-41
2022/01/12 07:20:55;;;;;;;33.40;16.75;;;2.00;99.90;;;;;;4995255;28;20104;-43
2022/01/12 07:23:22;;;;;;;201.77;27.60;;;2.00;99.90;;;;;;4994895;28;20054;-43
2022/01/12 07:25:49;;;;;;;302.17;30.92;;;2.00;99.90;;;;;;4995028;28;20138;-43
2022/01/12 07:28:16;;;;;;;165.02;24.25;;;2.10;99.90;;;;;;4995142;28;20061;-42
2022/01/12 07:30:43;;;;;;;111.85;19.90;;;2.10;99.90;;;;;;4994691;28;20494;-42
2022/01/12 07:33:11;;;;;;;81.28;20.48;;;2.10;99.90;;;;;;4993969;28;20109;-40
2022/01/12 07:35:38;;;;;;;247.45;26.98;;;2.10;99.90;;;;;;4974517;28;20388;-41
2022/01/12 07:38:05;;;;;;;152.75;25.85;;;2.10;99.90;;;;;;4994741;28;20108;-41
2022/01/12 07:40:35;;;;;;;54.42;21.65;;;2.10;99.90;;;;;;4994433;28;20086;-41
2022/01/12 07:43:03;;;;;;;99.90;22.65;;;2.10;99.90;;;;;;4993468;28;20141;-41
2022/01/12 07:45:30;;;;;;;106.60;22.95;;;2.10;99.90;;;;;;4993708;28;20133;-41
2022/01/12 07:47:57;;;;;;;66.93;22.65;;;2.10;99.90;;;;;;4994543;28;20463;-42
2022/01/12 07:50:25;;;;;;;88.55;24.65;;;2.20;99.90;;;;;;4994360;28;20133;-41
2022/01/12 07:52:53;;;;;;;135.35;26.67;;;2.20;99.90;;;;;;5000294;28;20045;-43
2022/01/12 07:55:20;;;;;;;50.22;20.77;;;2.20;99.90;;;;;;5013376;28;20498;-41
2022/01/12 07:57:48;;;;;;;66.75;24.65;;;2.20;99.90;;;;;;4979682;28;20130;-42
2022/01/12 08:00:15;;;;;;;52.65;21.20;;;2.20;99.90;;;;;;4975081;28;20410;-41
2022/01/12 08:02:42;;;;;;;77.10;25.83;;;2.30;99.90;;;;;;4997531;28;20133;-41
2022/01/12 08:05:11;;;;;;;67.03;24.80;;;2.30;99.90;;;;;;4989102;28;20146;-41
2022/01/12 08:07:40;;;;;;;104.25;29.13;;;2.30;99.90;;;;;;4995325;28;20495;-41
2022/01/12 08:10:08;;;;;;;65.82;25.00;;;2.40;99.90;;;;;;5012624;28;20054;-42
2022/01/12 08:12:35;;;;;;;68.90;24.48;;;2.40;99.90;;;;;;5011072;28;20130;-41
2022/01/12 08:15:02;;;;;;;61.70;23.85;;;2.40;99.90;;;;;;5000958;28;20120;-43
2022/01/12 08:17:29;;;;;;;68.38;23.42;;;2.50;99.90;;;;;;5012440;28;20089;-42
2022/01/12 08:19:57;;;;;;;82.35;27.08;;;2.50;99.90;;;;;;5012108;28;20139;-41
2022/01/12 08:22:24;;;;;;;55.53;21.33;;;2.50;99.90;;;;;;5013482;28;20046;-43
2022/01/12 08:24:53;;;;;;;76.35;26.25;;;2.60;99.90;;;;;;4993807;28;20437;-40
2022/01/12 08:27:20;;;;;;;63.55;23.83;;;2.60;99.90;;;;;;4993748;28;20070;-41
2022/01/12 08:29:49;;;;;;;89.15;27.30;;;2.60;99.90;;;;;;5008901;28;20488;-41
2022/01/12 08:32:16;;;;;;;85.47;25.85;;;2.70;99.90;;;;;;5009001;28;20159;-41
2022/01/12 08:34:43;;;;;;;86.68;26.45;;;2.70;99.90;;;;;;4992744;28;20046;-43
2022/01/12 08:37:10;;;;;;;70.80;23.95;;;2.80;99.90;;;;;;4993565;28;20129;-43
2022/01/12 08:39:37;;;;;;;92.93;29.20;;;2.90;99.90;;;;;;4993918;28;20133;-43
2022/01/12 08:42:06;;;;;;;58.55;22.10;;;2.90;99.90;;;;;;4993272;28;20397;-43
2022/01/12 08:44:33;;;;;;;106.30;30.73;;;3.00;99.90;;;;;;5002935;28;20485;-44
2022/01/12 08:47:00;;;;;;;78.60;24.85;;;3.00;99.90;;;;;;5011952;28;20058;-44
2022/01/12 08:49:27;;;;;;;107.10;29.40;;;3.10;99.90;;;;;;5012283;28;20465;-43
2022/01/12 08:51:54;;;;;;;65.43;23.08;;;3.10;99.90;;;;;;5011771;28;20064;-43
2022/01/12 08:54:21;;;;;;;67.60;22.38;;;3.10;99.90;;;;;;5012965;28;20112;-44
2022/01/12 08:56:48;;;;;;;66.03;23.60;;;3.20;99.90;;;;;;5011702;28;20050;-44
2022/01/12 08:59:17;;;;;;;75.82;22.60;;;3.20;99.90;;;;;;5011395;28;20457;-44
2022/01/12 09:01:44;;;;;;;94.60;24.25;;;3.20;99.90;;;;;;5012631;28;20050;-43
2022/01/12 09:04:11;;;;;;;85.72;23.95;;;3.30;99.90;;;;;;5012919;28;20108;-44
2022/01/12 09:06:38;;;;;;;78.28;23.08;;;3.30;99.90;;;;;;5011737;28;20053;-42
2022/01/12 09:09:05;;;;;;;106.43;25.60;;;3.40;99.90;;;;;;5011279;28;20057;-44
2022/01/12 09:11:32;;;;;;;92.45;26.00;;;3.50;99.90;;;;;;5009755;28;20070;-44
2022/01/12 09:14:00;;;;;;;103.18;25.58;;;3.50;99.90;;;;;;5012634;28;20050;-46
2022/01/12 09:16:28;;;;;;;93.22;24.75;;;3.50;99.90;;;;;;5011852;28;20081;-45
2022/01/12 09:18:56;;;;;;;93.53;24.63;;;3.60;99.90;;;;;;5012240;28;20060;-44
2022/01/12 09:21:23;;;;;;;98.13;24.73;;;3.70;99.90;;;;;;5012304;28;20050;-46
2022/01/12 09:23:50;;;;;;;95.70;27.13;;;3.70;99.90;;;;;;5010880;28;20116;-46
2022/01/12 09:26:17;;;;;;;78.65;23.77;;;3.80;99.90;;;;;;5010911;28;20204;-44
2022/01/12 09:28:45;;;;;;;82.00;24.27;;;3.90;99.90;;;;;;5008922;28;20041;-45
2022/01/12 09:31:12;;;;;;;103.90;25.98;;;3.90;99.90;;;;;;5013904;28;20566;-43
2022/01/12 09:33:41;;;;;;;86.03;25.15;;;3.90;99.90;;;;;;4978162;28;20055;-45
2022/01/12 09:36:08;;;;;;;100.93;26.08;;;4.00;99.90;;;;;;4984730;28;20057;-45
2022/01/12 09:38:35;;;;;;;88.20;24.13;;;4.00;99.90;;;;;;4992592;28;20406;-42
2022/01/12 09:41:04;;;;;;;83.18;22.92;;;4.10;99.90;;;;;;5009011;28;20050;-46
2022/01/12 09:43:34;;;;;;;76.63;23.67;;;4.10;99.90;;;;;;4972397;28;20057;-45
2022/01/12 09:46:01;;;;;;;81.07;22.40;;;4.10;99.90;;;;;;4972001;28;20447;-43
2022/01/12 09:48:33;;;;;;;80.20;22.80;;;4.10;99.90;;;;;;4989576;28;20054;-45
2022/01/12 09:51:04;;;;;;;87.85;22.80;;;4.20;99.90;;;;;;4995924;28;20093;-45
2022/01/12 09:53:31;;;;;;;78.13;21.58;;;4.20;99.90;;;;;;5005890;28;20066;-43
2022/01/12 09:55:58;;;;;;;79.05;22.98;;;4.20;99.90;;;;;;4993140;28;20056;-47
2022/01/12 09:58:25;;;;;;;77.60;21.77;;;4.30;99.90;;;;;;5023081;28;20046;-44
2022/01/12 10:00:56;;;;;;;68.25;20.88;;;4.30;99.90;;;;;;4986856;28;20061;-44
2022/01/12 10:03:25;;;;;;;63.42;19.58;;;4.30;99.90;;;;;;4971045;28;20054;-45
2022/01/12 10:05:52;;;;;;;75.22;19.83;;;4.30;99.90;;;;;;4970449;28;20055;-46
2022/01/12 10:08:20;;;;;;;72.93;20.80;;;4.40;99.90;;;;;;4971496;28;20467;-43
2022/01/12 10:11:02;;;;;;;63.88;19.42;;;4.50;99.90;;;;;;4986591;28;20047;-46
2022/01/12 10:13:29;;;;;;;54.95;18.02;;;4.50;99.90;;;;;;5007871;28;20072;-47
2022/01/12 10:15:56;;;;;;;68.50;19.55;;;4.50;99.90;;;;;;5011857;28;20137;-44
2022/01/12 10:18:26;;;;;;;54.78;17.73;;;4.50;99.90;;;;;;5011579;28;20462;-45
2022/01/12 10:20:53;;;;;;;66.38;18.48;;;4.60;99.90;;;;;;5010851;28;20081;-46
2022/01/12 10:23:23;;;;;;;69.75;19.10;;;4.60;99.90;;;;;;4974933;28;20057;-47
2022/01/12 10:25:50;;;;;;;83.07;19.00;;;4.70;99.90;;;;;;4971706;28;20055;-48
2022/01/12 10:28:19;;;;;;;76.85;18.50;;;4.70;99.90;;;;;;4987053;28;20574;-43
2022/01/12 10:30:53;;;;;;;79.55;20.50;;;4.70;99.90;;;;;;4991291;28;20109;-48
2022/01/12 10:33:20;;;;;;;91.25;21.13;;;4.80;99.90;;;;;;4977664;28;20086;-44
2022/01/12 10:35:50;;;;;;;85.35;19.83;;;4.80;99.90;;;;;;4971028;28;20510;-44
2022/01/12 10:38:18;;;;;;;70.57;17.80;;;4.80;99.90;;;;;;4980971;28;20097;-45
2022/01/12 10:40:51;;;;;;;94.57;18.63;;;4.90;99.90;;;;;;4995888;28;20120;-47
2022/01/12 10:43:32;;;;;;;107.13;17.30;;;5.00;99.90;;;;;;5010807;28;20051;-48
2022/01/12 10:45:59;;;;;;;84.63;16.03;;;5.00;99.90;;;;;;4995674;28;20119;-44
2022/01/12 10:48:32;;;;;;;112.32;17.35;;;5.00;99.90;;;;;;4994291;28;20285;-46
2022/01/12 10:51:00;;;;;;;107.13;16.10;;;5.10;99.90;;;;;;4994507;28;20046;-47
2022/01/12 10:53:28;;;;;;;85.65;15.73;;;5.20;99.90;;;;;;4995725;28;20042;-42
2022/01/12 10:56:04;;;;;;;73.80;13.52;;;5.20;99.90;;;;;;4995703;28;20405;-43
2022/01/12 10:58:31;;;;;;;78.90;13.80;;;5.30;99.90;;;;;;4994518;28;20475;-43
2022/01/12 11:00:58;;;;;;;67.32;13.88;;;5.30;99.90;;;;;;4980242;28;20057;-46
2022/01/12 11:03:25;;;;;;;73.75;14.18;;;5.30;99.90;;;;;;4975694;28;20065;-47
2022/01/12 11:05:54;;;;;;;80.68;13.48;;;5.40;99.90;;;;;;4985664;28;20042;-43
2022/01/12 11:08:22;;;;;;;59.00;11.48;;;5.40;99.90;;;;;;4989843;28;20136;-45
2022/01/12 11:10:49;;;;;;;53.25;12.77;;;5.40;99.90;;;;;;4995139;28;20097;-45
2022/01/12 11:13:17;;;;;;;70.05;12.73;;;5.40;99.90;;;;;;4994372;28;20061;-45
2022/01/12 11:15:44;;;;;;;58.33;11.45;;;5.50;99.90;;;;;;5010462;28;20089;-44
2022/01/12 11:18:11;;;;;;;57.22;12.30;;;5.50;99.90;;;;;;4994128;28;20076;-44
2022/01/12 11:20:38;;;;;;;55.75;12.18;;;5.50;99.90;;;;;;4994128;28;20050;-48
2022/01/12 11:23:07;;;;;;;51.05;11.60;;;5.50;99.90;;;;;;4994749;28;20053;-47
2022/01/12 11:25:35;;;;;;;48.58;11.02;;;5.50;99.90;;;;;;4995003;28;20144;-45
2022/01/12 11:28:10;;;;;;;73.35;10.80;;;5.50;99.90;;;;;;4995150;28;20054;-47
2022/01/12 11:30:39;;;;;;;66.07;11.20;;;5.50;99.90;;;;;;4994032;28;20132;-45
2022/01/12 11:33:07;;;;;;;41.38;9.85;;;5.60;99.90;;;;;;4994625;28;20054;-46
2022/01/12 11:35:36;;;;;;;60.35;11.00;;;5.60;99.90;;;;;;4994864;28;20546;-48
2022/01/12 11:38:03;;;;;;;44.30;9.93;;;5.70;99.90;;;;;;4994838;28;20050;-46
2022/01/12 11:40:38;;;;;;;54.85;10.68;;;5.70;99.90;;;;;;4994708;28;20054;-45
2022/01/12 11:43:06;;;;;;;63.17;10.90;;;5.70;99.90;;;;;;4994788;28;20058;-44
2022/01/12 11:45:33;;;;;;;74.75;11.07;;;5.80;99.90;;;;;;4994708;28;20073;-44
2022/01/12 11:48:01;;;;;;;51.80;9.60;;;5.80;99.90;;;;;;4992340;28;20054;-44
2022/01/12 11:50:28;;;;;;;43.88;9.52;;;5.80;99.90;;;;;;4994414;28;20064;-45
2022/01/12 11:52:55;;;;;;;54.13;9.63;;;5.80;99.90;;;;;;4994419;28;20470;-48
2022/01/12 11:55:22;;;;;;;49.55;11.05;;;5.80;99.90;;;;;;4994716;28;20137;-43
2022/01/12 11:57:50;;;;;;;39.47;10.63;;;5.80;99.90;;;;;;4992483;28;20410;-44
2022/01/12 12:00:18;;;;;;;57.08;9.38;;;5.80;99.90;;;;;;5011483;28;20505;-45
2022/01/12 12:02:45;;;;;;;57.25;11.38;;;5.90;99.90;;;;;;4994321;28;20078;-46
2022/01/12 12:05:18;;;;;;;52.60;11.30;;;5.80;99.90;;;;;;5003553;28;20476;-42
2022/01/12 12:07:48;;;;;;;50.35;10.85;;;5.90;99.90;;;;;;4990860;28;20086;-44
2022/01/12 12:10:16;;;;;;;50.40;11.68;;;5.90;99.90;;;;;;4994787;28;20098;-44
2022/01/12 12:12:43;;;;;;;48.67;11.23;;;5.90;99.90;;;;;;4995345;28;20046;-46
2022/01/12 12:15:11;;;;;;;40.90;11.18;;;5.90;99.90;;;;;;4994245;28;20054;-45
2022/01/12 12:17:39;;;;;;;47.30;12.70;;;5.90;99.90;;;;;;5009981;28;20050;-46
2022/01/12 12:20:07;;;;;;;44.95;12.30;;;5.90;99.90;;;;;;5012884;28;20045;-44
2022/01/12 12:22:38;;;;;;;50.80;12.80;;;5.90;99.90;;;;;;5014407;28;20058;-44
2022/01/12 12:25:07;;;;;;;46.78;11.85;;;5.90;99.90;;;;;;5013663;28;20133;-45
2022/01/12 12:27:34;;;;;;;51.13;13.15;;;5.90;99.90;;;;;;5014471;28;20582;-46
2022/01/12 12:30:02;;;;;;;46.33;13.40;;;5.80;99.90;;;;;;5014415;28;20050;-44
2022/01/12 12:32:39;;;;;;;57.40;15.38;;;5.80;99.90;;;;;;5010200;28;20081;-42
2022/01/12 12:35:07;;;;;;;42.70;13.45;;;5.80;99.90;;;;;;4994842;28;20090;-44
2022/01/12 12:37:37;;;;;;;42.60;16.55;;;5.80;99.90;;;;;;4994595;28;20582;-44
2022/01/12 12:40:16;;;;;;;46.97;14.48;;;5.80;99.90;;;;;;4993831;28;20054;-45
2022/01/12 12:42:43;;;;;;;49.10;14.23;;;5.90;99.90;;;;;;4993431;28;20137;-47
2022/01/12 12:45:10;;;;;;;49.25;14.23;;;5.80;99.90;;;;;;4994510;28;20479;-46
2022/01/12 12:47:37;;;;;;;64.75;14.65;;;5.80;99.90;;;;;;4994327;28;20086;-45
2022/01/12 12:50:08;;;;;;;43.90;13.52;;;5.80;99.90;;;;;;4994866;28;20097;-46
2022/01/12 12:52:37;;;;;;;48.88;13.40;;;5.80;99.90;;;;;;4994498;28;20050;-46
2022/01/12 12:55:06;;;;;;;53.00;13.25;;;5.80;99.90;;;;;;4993507;28;20089;-46
2022/01/12 12:57:33;;;;;;;56.85;12.93;;;5.80;99.90;;;;;;4994396;28;20108;-45
2022/01/12 13:00:11;;;;;;;49.85;13.52;;;5.80;99.90;;;;;;4993815;28;20058;-44
2022/01/12 13:02:38;;;;;;;45.05;14.52;;;5.80;99.90;;;;;;4993105;28;20050;-44
2022/01/12 13:05:05;;;;;;;35.92;12.75;;;5.80;99.90;;;;;;4994282;28;20058;-45
2022/01/12 13:07:38;;;;;;;51.00;12.10;;;5.80;99.90;;;;;;4993115;28;20112;-45
2022/01/12 13:10:06;;;;;;;62.35;12.13;;;5.80;99.90;;;;;;4993969;28;20058;-45
2022/01/12 13:12:37;;;;;;;114.45;12.73;;;5.80;99.90;;;;;;4994102;28;20054;-45
2022/01/12 13:15:06;;;;;;;46.45;11.65;;;5.80;99.90;;;;;;4993989;28;20141;-45
2022/01/12 13:17:33;;;;;;;69.63;12.10;;;5.70;99.90;;;;;;4994209;28;20525;-46
2022/01/12 13:22:47;;;;;;;89.43;12.63;;;5.70;99.90;;;;;;4993982;28;20090;-44
2022/01/12 13:25:15;;;;;;;87.85;13.70;;;5.70;99.90;;;;;;4993899;28;20054;-46
2022/01/12 13:27:42;;;;;;;61.95;12.82;;;5.70;99.90;;;;;;4993613;28;20695;-45
2022/01/12 13:30:10;;;;;;;43.53;11.90;;;5.60;99.90;;;;;;4986717;28;20051;-45
2022/01/12 13:32:38;;;;;;;36.72;12.35;;;5.60;99.90;;;;;;4992438;28;20041;-44
2022/01/12 13:35:08;;;;;;;48.80;12.38;;;5.60;99.90;;;;;;4992430;28;20062;-46
2022/01/12 13:37:35;;;;;;;45.35;12.40;;;5.60;99.90;;;;;;4990501;28;20517;-45
2022/01/12 13:40:07;;;;;;;35.13;11.32;;;5.60;99.90;;;;;;4993341;28;20050;-48
2022/01/12 13:42:34;;;;;;;37.40;12.23;;;5.60;99.90;;;;;;4992266;28;20060;-45
2022/01/12 13:45:07;;;;;;;39.95;12.00;;;5.60;99.90;;;;;;4992561;28;20054;-46
2022/01/12 13:47:35;;;;;;;35.78;12.13;;;5.60;99.90;;;;;;4989511;28;20057;-44
2022/01/12 13:50:06;;;;;;;38.42;12.93;;;5.60;99.90;;;;;;4992038;28;20133;-45